Kezdőlap
METAR-TAF:

METAR-TAF

Repülőterek :

Ambon, Indonézia

földrajzi szélesség: 03-42S, földrajzi hosszúság: 128-05E, magasság: 12 m

Jelenlegi meteorológiai megfigyelések

A jelentés 15 órával és 18 perccel ezelõtt készült, 22:30 UTC
Észak-északnyugati szél 6 kt
Hőmérséklet 25°C
Páratartalom 94%
Légköri nyomás 1013 hPa
Látótávolság 10 km, vagy több
Szórványos felhőzet 1800 lábon

METAR: WAPP 302230Z 34006KT 9999 SCT018 25/24 Q1013 NOSIG

Idő: 22:48 (13:48 UTC)

Előrejelzés

A jelentés 2 órával és 48 perccel ezelõtt készült, 11:00 UTC
Az előrejelzés 31-én 12 óra UTC és 01-én 12 óra UTC között érvényes
Észak-északnyugati szél 5 kt
Látótávolság 10 km, vagy több
Szórványos felhőzet 1800 lábon

TAF: WAPP 311100Z 3112/0112 33005KT 9999 SCT018

Meteorológiai megfigyelések és előrejelzések több, mint 4000 repülőtéren (METAR és TAF jelentéseket).

A térképen piros és sárga pontok jelzik az elérhető meteorológiai állomásokat.

Mozgassa az egeret a pont fölött, hogy megjelenjen az állomás neve.

Azután kattintson az időjárási megfigyelések és előrejelzések megtekintéséhez.

A térkép megváltoztatása: kattintson a fekete keresztel jelölt zöld gombra ráközelítéshez, a vonallal jelölt zöld gombra távolításhoz, vagy a zöld nyilakra a szomszédos térképek eléréséhez.


METAR-TAF: